Time;durP1;ratioP1;P1;durP2;ratioP2;P2;SDS_P1;SDS_P2;PMS_P1;PMS_P2;Temp;Humidity;BMP_temperature;BMP_pressure;BME280_temperature;BME280_humidity;BME280_pressure;Samples;Min_cycle;Max_cycle;Signal;HPM_P1;HPM_P2
2021/06/04 00:00:38;;;;;;;30.85;15.83;;;;;;;11.91;100.00;100086.00;1737289;83;21561;-76
2021/06/04 00:03:18;;;;;;;52.40;24.63;;;;;;;11.92;100.00;100080.41;1711056;83;21572;-78
2021/06/04 00:05:49;;;;;;;56.70;27.25;;;;;;;11.91;100.00;100091.42;1711309;84;21101;-78
2021/06/04 00:08:17;;;;;;;24.85;11.73;;;;;;;11.88;100.00;100092.60;1669793;85;21559;-78
2021/06/04 00:11:02;;;;;;;36.08;18.27;;;;;;;11.86;100.00;100093.78;1666575;86;21050;-78
2021/06/04 00:13:53;;;;;;;41.70;21.25;;;;;;;11.83;100.00;100092.29;1673027;84;21039;-79
2021/06/04 00:16:30;;;;;;;32.42;15.65;;;;;;;11.82;100.00;100088.40;1636556;87;21133;-78
2021/06/04 00:18:59;;;;;;;35.75;17.02;;;;;;;11.80;100.00;100087.73;1637707;85;21076;-78
2021/06/04 00:21:31;;;;;;;74.82;37.98;;;;;;;11.80;100.00;100092.64;1637429;88;21093;-78
2021/06/04 00:24:00;;;;;;;51.83;29.35;;;;;;;11.83;100.00;100091.42;1637889;88;21077;-77
2021/06/04 00:26:28;;;;;;;35.38;20.75;;;;;;;11.83;100.00;100094.13;1601980;90;21049;-78
2021/06/04 00:28:55;;;;;;;37.17;19.98;;;;;;;11.84;100.00;100097.19;1581749;91;21067;-77
2021/06/04 00:31:25;;;;;;;45.80;24.40;;;;;;;11.86;100.00;100099.20;1601831;90;21077;-78
2021/06/04 00:33:52;;;;;;;101.50;50.78;;;;;;;11.88;100.00;100103.44;1570552;90;21116;-78
2021/06/04 00:36:23;;;;;;;85.35;45.58;;;;;;;11.91;100.00;100095.48;1581978;91;21111;-78
2021/06/04 00:38:55;;;;;;;86.65;44.85;;;;;;;11.92;100.00;100095.83;1601877;90;21111;-79
2021/06/04 00:41:33;;;;;;;41.60;23.65;;;;;;;11.91;100.00;100099.55;1602069;90;21101;-78
2021/06/04 00:44:01;;;;;;;102.53;60.63;;;;;;;11.91;100.00;100102.25;1576701;91;21097;-79
2021/06/04 00:46:28;;;;;;;25.12;12.68;;;;;;;11.91;100.00;100100.91;1576962;91;21072;-78
2021/06/04 00:48:57;;;;;;;22.73;10.70;;;;;;;11.92;100.00;100089.89;1576824;91;21056;-78
2021/06/04 00:51:32;;;;;;;20.15;9.38;;;;;;;11.91;100.00;100100.91;1577026;91;21048;-79
2021/06/04 00:54:03;;;;;;;20.32;8.90;;;;;;;11.90;100.00;100100.55;1523780;93;21163;-78
2021/06/04 00:56:30;;;;;;;18.37;8.40;;;;;;;11.88;100.00;100104.80;1577112;91;21048;-79
2021/06/04 00:58:57;;;;;;;82.10;39.55;;;;;;;11.87;100.00;100100.38;1576206;91;21595;-77
2021/06/04 01:01:27;;;;;;;29.85;13.95;;;;;;;11.87;100.00;100100.91;1540722;92;21041;-78
2021/06/04 01:03:59;;;;;;;26.52;12.37;;;;;;;11.86;100.00;100091.91;1540348;91;21109;-77
2021/06/04 01:06:38;;;;;;;29.67;13.07;;;;;;;11.87;100.00;100104.97;1587856;90;21106;-78
2021/06/04 01:09:18;;;;;;;27.48;13.35;;;;;;;11.87;100.00;100100.91;1551334;92;21562;-78
2021/06/04 01:12:32;;;;;;;21.85;11.57;;;;;;;11.87;100.00;100103.61;1551363;92;21060;-78
2021/06/04 01:15:28;;;;;;;193.55;90.15;;;;;;;11.89;100.00;100101.05;1578963;90;21074;-78
2021/06/04 01:18:29;;;;;;;108.67;54.27;;;;;;;11.88;100.00;100100.73;1579590;91;21175;-78
2021/06/04 01:21:21;;;;;;;201.57;93.67;;;;;;;11.88;100.00;100104.80;1579416;91;21584;-79
2021/06/04 01:24:20;;;;;;;90.35;44.27;;;;;;;11.87;100.00;100103.09;1579331;86;21367;-76
2021/06/04 01:26:54;;;;;;;113.90;54.80;;;;;;;11.88;100.00;100098.52;1561033;92;21196;-78
2021/06/04 01:29:31;;;;;;;66.95;31.68;;;;;;;11.88;100.00;100107.99;1561075;92;21034;-78
2021/06/04 01:32:05;;;;;;;35.88;17.30;;;;;;;11.87;100.00;100103.09;1562427;90;21121;-78
2021/06/04 01:34:36;;;;;;;66.95;34.90;;;;;;;11.87;100.00;100105.80;1561038;92;21142;-79
2021/06/04 01:37:12;;;;;;;47.40;24.02;;;;;;;11.88;100.00;100104.80;1563834;90;21599;-78
2021/06/04 01:39:52;;;;;;;42.55;21.85;;;;;;;11.89;100.00;100109.70;1529320;94;21070;-78
2021/06/04 01:42:28;;;;;;;54.27;28.40;;;;;;;11.88;100.00;100104.80;1523772;94;21574;-79
2021/06/04 01:45:06;;;;;;;54.55;28.35;;;;;;;11.87;100.00;100108.52;1523661;94;21381;-78
2021/06/04 01:47:40;;;;;;;125.90;63.15;;;;;;;11.86;100.00;100107.33;1473520;94;21103;-79
2021/06/04 01:50:17;;;;;;;38.55;20.57;;;;;;;11.88;100.00;100106.64;1472921;97;21123;-78
2021/06/04 01:52:44;;;;;;;80.10;41.40;;;;;;;11.90;100.00;100114.11;1469641;98;21104;-78
2021/06/04 01:55:28;;;;;;;24.20;12.93;;;;;;;11.91;100.00;100116.64;1494691;96;21096;-79
2021/06/04 01:58:08;;;;;;;12.15;6.65;;;;;;;11.93;100.00;100118.69;1494716;96;21068;-78
2021/06/04 02:00:41;;;;;;;19.98;8.53;;;;;;;11.96;100.00;100127.80;1494480;96;21104;-79
2021/06/04 02:03:13;;;;;;;12.50;6.00;;;;;;;11.98;100.00;100119.48;1408620;100;21607;-79
2021/06/04 02:05:42;;;;;;;10.45;5.72;;;;;;;12.00;100.00;100123.38;1378109;103;21176;-78
2021/06/04 02:08:16;;;;;;;8.90;5.25;;;;;;;11.99;100.00;100123.03;1422177;101;21112;-78
2021/06/04 02:10:48;;;;;;;10.40;5.67;;;;;;;11.99;100.00;100122.55;1426737;100;21147;-79
2021/06/04 02:13:16;;;;;;;11.25;5.87;;;;;;;12.00;100.00;100120.15;1430547;99;21163;-79
2021/06/04 02:15:47;;;;;;;11.83;5.35;;;;;;;11.98;100.00;100120.01;1453743;97;21081;-80
2021/06/04 02:18:38;;;;;;;10.35;5.75;;;;;;;11.96;100.00;100122.37;1472959;97;21596;-79
2021/06/04 02:21:14;;;;;;;12.23;5.97;;;;;;;11.98;100.00;100126.78;1472907;97;21114;-79
2021/06/04 02:24:10;;;;;;;10.95;5.25;;;;;;;11.98;100.00;100124.91;1472905;97;21136;-78
2021/06/04 02:26:51;;;;;;;12.03;6.10;;;;;;;11.99;100.00;100125.74;1479069;97;21133;-78
2021/06/04 02:29:38;;;;;;;9.65;5.50;;;;;;;11.95;100.00;100118.00;1475673;97;21125;-79
2021/06/04 02:32:26;;;;;;;17.48;7.47;;;;;;;11.94;100.00;100121.71;1459244;97;21097;-78
2021/06/04 02:35:16;;;;;;;19.27;8.73;;;;;;;11.92;100.00;100123.76;1479245;97;21155;-79
2021/06/04 02:37:47;;;;;;;14.90;7.20;;;;;;;11.93;100.00;100120.05;1546587;93;21164;-79
2021/06/04 02:40:31;;;;;;;14.58;7.10;;;;;;;11.95;100.00;100123.41;1547191;93;21084;-79
2021/06/04 02:43:01;;;;;;;;;;;;;;;11.98;100.00;100129.49;1550209;92;21530;-77
2021/06/04 02:45:42;;;;;;;10.75;5.50;;;;;;;11.99;100.00;100124.39;1547174;93;20129;-77
2021/06/04 02:48:17;;;;;;;13.25;6.37;;;;;;;12.00;100.00;100128.28;1552271;92;21110;-78
2021/06/04 02:50:54;;;;;;;12.13;5.85;;;;;;;12.02;100.00;100124.87;1506828;94;21113;-78
2021/06/04 02:53:42;;;;;;;11.83;5.83;;;;;;;12.02;100.00;100130.30;1524613;94;21079;-77
2021/06/04 02:56:24;;;;;;;10.05;6.15;;;;;;;12.03;100.00;100127.93;1500343;95;21201;-78
2021/06/04 02:59:03;;;;;;;11.93;5.53;;;;;;;12.06;100.00;100130.29;1505580;94;21422;-78
2021/06/04 03:01:32;;;;;;;12.30;5.95;;;;;;;12.07;100.00;100126.55;1525205;94;21063;-77
2021/06/04 03:04:01;;;;;;;9.90;5.58;;;;;;;12.12;100.00;100128.73;1501847;96;21171;-78
2021/06/04 03:06:35;;;;;;;10.95;5.53;;;;;;;12.14;100.00;100128.03;1502666;96;21098;-77
2021/06/04 03:09:06;;;;;;;10.23;5.93;;;;;;;12.14;100.00;100133.45;1483341;97;21082;-77
2021/06/04 03:11:33;;;;;;;14.80;6.10;;;;;;;12.17;100.00;100133.10;1554351;91;21084;-77
2021/06/04 03:14:04;;;;;;;13.90;7.05;;;;;;;12.20;100.00;100121.05;1577166;90;21166;-77
2021/06/04 03:16:32;;;;;;;12.82;6.25;;;;;;;12.22;100.00;100123.09;1561535;90;21603;-78
2021/06/04 03:19:04;;;;;;;10.55;5.83;;;;;;;12.21;100.00;100122.74;1549294;93;21419;-78
2021/06/04 03:21:39;;;;;;;9.98;5.40;;;;;;;12.23;100.00;100130.18;1547706;93;21110;-76
2021/06/04 03:24:11;;;;;;;11.03;5.50;;;;;;;12.25;100.00;100125.42;1549989;93;21061;-77
2021/06/04 03:26:40;;;;;;;10.08;5.87;;;;;;;12.28;100.00;100129.13;1577920;91;21072;-77
2021/06/04 03:29:11;;;;;;;11.03;6.15;;;;;;;12.30;100.00;100120.30;1579554;91;21645;-77
2021/06/04 03:31:43;;;;;;;12.28;6.53;;;;;;;12.31;100.00;100130.97;1579534;91;21179;-78
2021/06/04 03:34:10;;;;;;;12.68;6.53;;;;;;;12.34;100.00;100125.69;1580044;91;21133;-77
2021/06/04 03:36:42;;;;;;;14.75;6.03;;;;;;;12.34;100.00;100120.27;1579986;91;21068;-77
2021/06/04 03:39:21;;;;;;;14.40;6.42;;;;;;;12.36;100.00;100125.02;1579788;91;21075;-76
2021/06/04 03:41:51;;;;;;;21.23;9.33;;;;;;;12.38;100.00;100120.25;1543299;93;21142;-76
2021/06/04 03:44:23;;;;;;;22.98;10.38;;;;;;;12.39;100.00;100124.63;1543035;93;21074;-78
2021/06/04 03:46:51;;;;;;;17.82;7.67;;;;;;;12.40;100.00;100123.62;1542878;92;21193;-78
2021/06/04 03:49:18;;;;;;;14.90;6.65;;;;;;;12.39;100.00;100129.22;1523593;93;21092;-78
2021/06/04 03:51:46;;;;;;;11.78;6.37;;;;;;;12.41;100.00;100130.75;1542917;93;21123;-77
2021/06/04 03:54:18;;;;;;;12.80;6.95;;;;;;;12.42;100.00;100133.77;1542690;93;21066;-78
2021/06/04 03:56:46;;;;;;;14.05;7.08;;;;;;;12.44;100.00;100124.94;1542807;93;21135;-78
2021/06/04 03:59:14;;;;;;;22.55;11.30;;;;;;;12.44;100.00;100124.94;1543839;93;21083;-77
2021/06/04 04:01:53;;;;;;;15.50;7.00;;;;;;;12.47;100.00;100123.23;1544319;93;21142;-77
2021/06/04 04:04:23;;;;;;;12.82;6.17;;;;;;;12.51;100.00;100121.83;1524028;93;21038;-76
2021/06/04 04:06:50;;;;;;;16.07;8.08;;;;;;;12.49;100.00;100117.63;1548532;91;21530;-78
2021/06/04 04:09:19;;;;;;;13.72;7.08;;;;;;;12.49;100.00;100121.17;1579490;91;21070;-78
2021/06/04 04:11:49;;;;;;;13.65;6.80;;;;;;;12.51;100.00;100115.05;1579258;91;21528;-77
2021/06/04 04:14:17;;;;;;;13.90;6.35;;;;;;;12.48;100.00;100118.15;1580867;89;21064;-78
2021/06/04 04:16:44;;;;;;;13.62;6.20;;;;;;;12.50;100.00;100123.36;1610751;88;21644;-76
2021/06/04 04:19:14;;;;;;;20.65;9.95;;;;;;;12.53;100.00;100124.36;1620495;89;21568;-78
2021/06/04 04:21:40;;;;;;;17.70;8.25;;;;;;;12.56;100.00;100120.46;1620576;89;21111;-77
2021/06/04 04:24:12;;;;;;;14.03;7.55;;;;;;;12.56;100.00;100122.66;1620635;89;21083;-78
2021/06/04 04:26:40;;;;;;;13.67;6.77;;;;;;;12.59;100.00;100125.01;1620650;89;21640;-77
2021/06/04 04:29:07;;;;;;;12.78;6.87;;;;;;;12.63;100.00;100131.75;1620650;89;21301;-77
2021/06/04 04:31:39;;;;;;;15.08;7.20;;;;;;;12.65;100.00;100128.33;1620314;89;21121;-77
2021/06/04 04:34:06;;;;;;;13.22;7.12;;;;;;;12.66;100.00;100125.97;1620668;89;21679;-78
2021/06/04 04:36:38;;;;;;;179.23;129.72;;;;;;;12.67;100.00;100124.92;1620502;89;21051;-78
2021/06/04 04:39:07;;;;;;;47.03;32.80;;;;;;;12.73;100.00;100127.44;1728656;83;20993;-78
2021/06/04 04:41:34;;;;;;;32.75;18.57;;;;;;;12.79;100.00;100124.50;1724610;83;21085;-78
2021/06/04 04:44:03;;;;;;;75.42;40.30;;;;;;;12.85;100.00;100128.66;1737651;83;21033;-76
2021/06/04 04:46:30;;;;;;;169.77;88.30;;;;;;;12.90;100.00;100125.41;1724516;83;21097;-78
2021/06/04 04:48:57;;;;;;;67.95;36.58;;;;;;;12.94;100.00;100117.73;1737620;82;21021;-77
2021/06/04 04:51:27;;;;;;;62.60;33.48;;;;;;;13.00;100.00;100118.37;1737644;83;21502;-77
2021/06/04 04:53:54;;;;;;;176.18;88.27;;;;;;;13.06;100.00;100118.45;1738373;82;21040;-76
2021/06/04 04:56:23;;;;;;;36.88;19.17;;;;;;;13.14;100.00;100122.10;1737549;82;21550;-76
2021/06/04 04:58:50;;;;;;;28.65;15.68;;;;;;;13.19;100.00;100119.19;1737871;82;21045;-78
2021/06/04 05:01:18;;;;;;;250.00;138.10;;;;;;;13.25;100.00;100119.78;1738156;82;21096;-78
2021/06/04 05:03:44;;;;;;;63.60;36.88;;;;;;;13.28;100.00;100121.30;1725122;83;21061;-79
2021/06/04 05:06:11;;;;;;;34.90;19.55;;;;;;;13.29;100.00;100122.97;1724818;83;21033;-79
2021/06/04 05:08:40;;;;;;;22.40;11.90;;;;;;;13.34;100.00;100127.88;1737789;82;21054;-78
2021/06/04 05:11:08;;;;;;;18.60;8.45;;;;;;;13.36;100.00;100126.65;1737406;83;21047;-78
2021/06/04 05:13:36;;;;;;;46.42;24.05;;;;;;;13.42;100.00;100124.56;1744899;81;21051;-76
2021/06/04 05:16:04;;;;;;;27.48;14.33;;;;;;;13.45;100.00;100128.76;1763484;81;21043;-74
2021/06/04 05:18:35;;;;;;;21.50;10.32;;;;;;;13.49;100.00;100131.42;1754220;81;21032;-77
2021/06/04 05:21:05;;;;;;;43.50;24.10;;;;;;;13.57;100.00;100140.01;1750049;82;21009;-77
2021/06/04 05:26:14;;;;;;;26.65;18.12;;;;;;;13.70;100.00;100138.80;1630467;87;21709;-78
2021/06/04 05:28:42;;;;;;;27.70;17.05;;;;;;;13.77;100.00;100134.30;1607141;87;21038;-76
2021/06/04 05:31:11;;;;;;;19.92;9.15;;;;;;;13.79;100.00;100132.27;1607840;88;21132;-76
2021/06/04 05:33:41;;;;;;;20.02;10.32;;;;;;;13.89;100.00;100132.47;1584715;91;21578;-76
2021/06/04 05:36:16;;;;;;;12.75;6.83;;;;;;;13.95;100.00;100135.28;1637292;88;21654;-79
2021/06/04 05:38:46;;;;;;;12.53;6.87;;;;;;;14.06;100.00;100138.02;1628147;88;21064;-77
2021/06/04 05:41:13;;;;;;;22.62;15.28;;;;;;;14.16;100.00;100132.25;1627655;88;21052;-76
2021/06/04 05:43:41;;;;;;;21.97;11.10;;;;;;;14.22;100.00;100138.30;1627948;88;21047;-75
2021/06/04 05:46:10;;;;;;;32.30;16.65;;;;;;;14.24;100.00;100134.34;1627808;88;21545;-74
2021/06/04 05:48:39;;;;;;;28.40;16.00;;;;;;;14.29;100.00;100136.98;1627443;88;21216;-75
2021/06/04 05:51:10;;;;;;;40.03;22.58;;;;;;;14.35;100.00;100146.58;1627727;88;21040;-76
2021/06/04 05:53:37;;;;;;;38.33;23.25;;;;;;;14.36;100.00;100131.09;1627333;88;21122;-75
2021/06/04 05:56:07;;;;;;;45.40;32.40;;;;;;;14.34;100.00;100135.39;1627813;87;21048;-75
2021/06/04 05:58:34;;;;;;;28.57;13.95;;;;;;;14.31;100.00;100141.21;1628016;88;21036;-76
2021/06/04 06:01:08;;;;;;;21.55;10.20;;;;;;;14.32;100.00;100140.69;1627692;88;21138;-76
2021/06/04 06:03:36;;;;;;;22.30;10.53;;;;;;;14.38;100.00;100140.77;1628278;88;21063;-79
2021/06/04 06:06:03;;;;;;;24.57;13.20;;;;;;;14.49;100.00;100135.32;1627545;88;21146;-79
2021/06/04 06:08:31;;;;;;;17.87;8.33;;;;;;;14.65;100.00;100141.58;1612002;88;21531;-73
2021/06/04 06:10:58;;;;;;;17.20;6.55;;;;;;;14.83;100.00;100145.19;1612277;88;21020;-75
2021/06/04 06:13:28;;;;;;;45.08;25.12;;;;;;;14.97;100.00;100134.20;1608997;88;21118;-79
2021/06/04 06:15:56;;;;;;;60.43;35.90;;;;;;;15.07;100.00;100137.95;1626647;87;21584;-75
2021/06/04 06:18:27;;;;;;;19.27;9.50;;;;;;;15.15;100.00;100131.50;1604610;86;21112;-78
2021/06/04 06:20:56;;;;;;;47.33;28.42;;;;;;;15.25;100.00;100126.55;1555602;91;21146;-73
2021/06/04 06:23:27;;;;;;;30.60;15.93;;;;;;;15.35;100.00;100128.90;1584695;90;21034;-77
2021/06/04 06:26:02;;;;;;;17.32;7.95;;;;;;;15.35;100.00;100131.63;1607928;88;21159;-77
2021/06/04 06:28:33;;;;;;;13.50;7.35;;;;;;;15.36;100.00;100140.96;1604771;88;21571;-76
2021/06/04 06:31:09;;;;;;;11.83;6.53;;;;;;;15.35;100.00;100137.07;1632597;87;21065;-76
2021/06/04 06:33:37;;;;;;;44.88;21.62;;;;;;;15.31;100.00;100143.44;1637560;87;20981;-74
2021/06/04 06:36:07;;;;;;;19.52;10.08;;;;;;;15.33;100.00;100141.89;1669147;85;21519;-78
2021/06/04 06:38:34;;;;;;;31.93;15.93;;;;;;;15.18;100.00;100139.28;1680951;85;21052;-77
2021/06/04 06:41:04;;;;;;;18.30;8.15;;;;;;;15.10;100.00;100135.34;1676200;85;21053;-76
2021/06/04 06:43:32;;;;;;;17.00;8.80;;;;;;;15.22;100.00;100150.09;1660666;85;21069;-76
2021/06/04 06:46:03;;;;;;;17.15;6.42;;;;;;;15.31;100.00;100147.53;1666047;85;21050;-74
2021/06/04 06:48:29;;;;;;;38.45;20.23;;;;;;;15.34;100.00;100157.20;1674042;85;21170;-74
2021/06/04 06:51:00;;;;;;;22.22;9.33;;;;;;;15.29;100.00;100156.42;1654336;86;21139;-72
2021/06/04 06:53:27;;;;;;;43.63;22.17;;;;;;;15.26;100.00;100155.98;1539508;92;21049;-74
2021/06/04 06:55:56;;;;;;;18.10;7.78;;;;;;;15.18;100.00;100157.81;1554115;92;21575;-73
2021/06/04 06:58:25;;;;;;;14.63;6.25;;;;;;;15.17;100.00;100160.24;1555212;92;21120;-74
2021/06/04 07:00:52;;;;;;;42.80;21.05;;;;;;;15.20;100.00;100163.07;1533190;92;21015;-75
2021/06/04 07:03:28;;;;;;;51.10;26.45;;;;;;;15.34;100.00;100162.66;1556010;92;21064;-77
2021/06/04 07:05:58;;;;;;;65.03;35.83;;;;;;;15.34;100.00;100162.66;1555594;91;21091;-77
2021/06/04 07:08:26;;;;;;;55.67;30.45;;;;;;;15.41;100.00;100162.70;1500409;96;21271;-74
2021/06/04 07:11:02;;;;;;;27.35;10.78;;;;;;;15.51;100.00;100163.16;1500311;96;21123;-76
2021/06/04 07:13:37;;;;;;;27.77;14.23;;;;;;;15.61;100.00;100159.55;1488297;96;21162;-76
2021/06/04 07:16:08;;;;;;;231.47;120.13;;;;;;;15.82;100.00;100158.66;1450557;99;21125;-74
2021/06/04 07:18:38;;;;;;;83.95;43.63;;;;;;;16.10;100.00;100160.45;1443236;97;21082;-72
2021/06/04 07:21:09;;;;;;;31.62;12.47;;;;;;;16.33;100.00;100153.28;1431506;96;21723;-73
2021/06/04 07:23:36;;;;;;;18.57;8.70;;;;;;;16.62;100.00;100156.69;1426404;99;21210;-73
2021/06/04 07:26:04;;;;;;;23.35;11.80;;;;;;;16.87;100.00;100158.31;1436477;99;21116;-72
2021/06/04 07:28:32;;;;;;;39.83;25.40;;;;;;;16.99;100.00;100138.88;1430965;99;21147;-70
2021/06/04 07:31:05;;;;;;;40.15;28.67;;;;;;;17.04;100.00;100141.83;1438498;99;21167;-73
2021/06/04 07:33:36;;;;;;;22.48;9.93;;;;;;;16.97;100.00;100140.16;1415906;101;21144;-71
2021/06/04 07:36:07;;;;;;;14.38;7.85;;;;;;;16.73;100.00;100129.29;1407984;102;21637;-74
2021/06/04 07:38:34;;;;;;;16.17;7.08;;;;;;;16.48;100.00;100137.58;1406489;102;21119;-74
2021/06/04 07:43:49;;;;;;;19.45;8.83;;;;;;;16.18;100.00;100146.61;1361225;104;21140;-77
2021/06/04 07:46:18;;;;;;;15.53;7.35;;;;;;;16.08;100.00;100149.74;1359053;105;21676;-72
2021/06/04 07:48:45;;;;;;;16.67;6.75;;;;;;;15.97;100.00;100157.16;1361050;105;21113;-73
2021/06/04 07:51:18;;;;;;;13.08;6.30;;;;;;;15.90;100.00;100159.86;1360466;105;21171;-73
2021/06/04 07:53:45;;;;;;;10.40;5.40;;;;;;;15.91;100.00;100170.23;1356631;105;21670;-73
2021/06/04 07:56:14;;;;;;;9.65;5.67;;;;;;;15.96;100.00;100167.73;1368564;102;21116;-73
2021/06/04 07:58:45;;;;;;;13.78;6.30;;;;;;;15.97;100.00;100172.16;1404499;102;21189;-73
2021/06/04 08:01:13;;;;;;;26.12;12.28;;;;;;;15.97;100.00;100161.25;1413022;101;21174;-73
2021/06/04 08:03:41;;;;;;;36.08;20.97;;;;;;;15.86;100.00;100165.91;1398266;102;21592;-74
2021/06/04 08:06:10;;;;;;;23.95;11.28;;;;;;;15.86;100.00;100165.91;1411528;102;21084;-73
2021/06/04 08:08:37;;;;;;;20.35;9.50;;;;;;;15.82;100.00;100172.81;1413108;102;21116;-73
2021/06/04 08:11:08;;;;;;;13.43;6.20;;;;;;;15.82;100.00;100172.81;1402647;99;21191;-74
2021/06/04 08:13:36;;;;;;;11.88;5.95;;;;;;;15.77;100.00;100182.12;1443209;99;21144;-73
2021/06/04 08:16:24;;;;;;;;;;;;;;;;;;;;;
2021/06/04 08:18:58;;;;;;;75.62;39.23;;;;;;;15.91;100.00;100180.61;1412150;100;21129;-72
2021/06/04 08:21:29;;;;;;;21.45;8.88;;;;;;;15.98;100.00;100176.55;1407863;99;21296;-74
2021/06/04 08:23:56;;;;;;;30.72;14.95;;;;;;;16.12;100.00;100174.73;1476344;97;21098;-74
2021/06/04 08:26:27;;;;;;;75.50;37.93;;;;;;;16.37;100.00;100168.72;1484831;97;21139;-74
2021/06/04 08:28:59;;;;;;;63.68;30.05;;;;;;;16.71;100.00;100171.81;1484928;97;21153;-71
2021/06/04 08:31:28;;;;;;;427.23;217.80;;;;;;;17.17;100.00;100157.36;1485967;97;21103;-76
2021/06/04 08:33:55;;;;;;;541.90;265.30;;;;;;;17.59;100.00;100145.62;1506831;95;21071;-75
2021/06/04 08:36:31;;;;;;;362.08;149.32;;;;;;;17.79;100.00;100132.41;1519979;94;21631;-73
2021/06/04 08:39:01;;;;;;;211.40;85.38;;;;;;;17.87;100.00;100127.27;1532772;93;21092;-77
2021/06/04 08:42:20;;;;;;;350.25;175.78;;;;;;;18.01;100.00;100124.79;1576856;91;21590;-77
2021/06/04 08:45:19;;;;;;;462.08;201.75;;;;;;;17.95;100.00;100120.17;1578046;91;21042;-78
2021/06/04 08:48:19;;;;;;;119.50;55.88;;;;;;;17.73;100.00;100120.45;1581072;90;21147;-79
2021/06/04 08:51:11;;;;;;;44.83;19.15;;;;;;;17.59;100.00;100129.22;1564472;90;21058;-76
2021/06/04 08:53:53;;;;;;;486.82;245.27;;;;;;;17.48;100.00;100129.06;1577391;91;21061;-76
2021/06/04 08:56:28;;;;;;;61.13;29.07;;;;;;;17.49;100.00;100127.98;1580142;91;21030;-76
2021/06/04 08:59:06;;;;;;;42.88;22.27;;;;;;;17.54;100.00;100130.38;1623593;88;21068;-75
2021/06/04 09:01:53;;;;;;;154.63;83.12;;;;;;;17.68;100.00;100131.73;1620193;88;21105;-76
2021/06/04 09:04:32;;;;;;;36.53;18.85;;;;;;;18.06;100.00;100136.42;1620269;88;21101;-75
2021/06/04 09:07:06;;;;;;;34.80;14.05;;;;;;;18.49;100.00;100121.55;1621279;88;21045;-78
2021/06/04 09:09:46;;;;;;;16.97;6.40;;;;;;;18.81;100.00;100124.27;1621784;88;21610;-77
2021/06/04 09:12:23;;;;;;;19.02;7.03;;;;;;;19.05;100.00;100119.02;1621434;88;21694;-77
2021/06/04 09:14:52;;;;;;;44.25;25.52;;;;;;;19.08;100.00;100112.56;1622325;88;21061;-77
2021/06/04 09:17:57;;;;;;;22.45;9.75;;;;;;;19.05;100.00;100103.95;1621793;88;21022;-77
2021/06/04 09:20:51;;;;;;;18.95;5.40;;;;;;;19.11;100.00;100106.63;1558819;87;21167;-75
2021/06/04 09:23:40;;;;;;;13.93;4.12;;;;;;;19.40;100.00;100115.19;1584732;90;21099;-77
2021/06/04 09:28:49;;;;;;;24.05;8.35;;;;;;;19.79;100.00;100108.97;1436961;100;21117;-79
2021/06/04 09:31:25;;;;;;;17.42;5.97;;;;;;;19.85;100.00;100108.06;1401161;100;21611;-79
2021/06/04 09:33:56;;;;;;;62.23;30.27;;;;;;;19.87;100.00;100111.41;1389099;103;21141;-77
2021/06/04 09:36:26;;;;;;;79.60;36.63;;;;;;;19.97;100.00;100111.39;1364601;104;21528;-78
2021/06/04 09:39:00;;;;;;;89.00;42.33;;;;;;;19.90;100.00;100102.73;1389006;103;21142;-77
2021/06/04 09:41:39;;;;;;;30.37;14.03;;;;;;;19.94;100.00;100107.22;1385694;102;21145;-77
2021/06/04 09:44:21;;;;;;;29.50;14.35;;;;;;;19.91;100.00;100107.67;1388998;103;21113;-76
2021/06/04 09:47:08;;;;;;;24.25;8.80;;;;;;;19.91;100.00;100107.12;1389094;103;21114;-76
2021/06/04 09:49:47;;;;;;;310.40;130.85;;;;;;;20.13;100.00;100109.91;1389438;103;21139;-78
2021/06/04 09:52:36;;;;;;;32.13;12.30;;;;;;;20.35;100.00;100108.33;1367053;105;21207;-77
2021/06/04 09:55:14;;;;;;;286.05;131.15;;;;;;;20.21;100.00;100096.70;1367027;105;21219;-78
2021/06/04 09:58:09;;;;;;;79.97;32.42;;;;;;;20.09;100.00;100095.81;1394490;102;21115;-79
2021/06/04 10:01:05;;;;;;;469.17;199.42;;;;;;;19.94;100.00;100103.10;1326797;107;21112;-77
2021/06/04 10:03:50;;;;;;;36.42;13.90;;;;;;;19.61;100.00;100105.68;1340799;106;21154;-77
2021/06/04 10:06:23;;;;;;;21.45;7.83;;;;;;;19.34;100.00;100106.52;1378842;104;21115;-76
2021/06/04 10:09:05;;;;;;;19.65;6.60;;;;;;;19.30;100.00;100110.25;1378938;104;21170;-76
2021/06/04 10:11:52;;;;;;;10.28;3.83;;;;;;;19.37;100.00;100112.06;1379329;103;21218;-80
2021/06/04 10:19:45;;;;;;;20.88;7.72;;;;;;;19.39;100.00;100094.85;1351105;105;21111;-77
2021/06/04 10:22:40;;;;;;;141.30;68.90;;;;;;;19.40;100.00;100095.17;1326052;106;21241;-78
2021/06/04 10:25:12;;;;;;;168.28;86.17;;;;;;;19.48;100.00;100101.73;1367058;102;21105;-77
2021/06/04 10:27:52;;;;;;;48.90;23.07;;;;;;;19.60;100.00;100096.30;1405855;102;21102;-76
2021/06/04 10:30:40;;;;;;;516.23;185.88;;;;;;;19.67;100.00;100101.17;1406164;101;21234;-78
2021/06/04 10:33:12;;;;;;;54.30;22.20;;;;;;;19.60;100.00;100095.80;1457391;98;21151;-78
2021/06/04 10:35:44;;;;;;;21.87;6.30;;;;;;;19.48;100.00;100097.63;1464156;98;21156;-77
2021/06/04 10:38:18;;;;;;;13.70;4.37;;;;;;;19.45;100.00;100097.53;1500162;95;21140;-78
2021/06/04 10:40:50;;;;;;;10.03;3.98;;;;;;;19.49;100.00;100100.11;1450563;99;21141;-78
2021/06/04 10:43:48;;;;;;;17.77;4.70;;;;;;;19.52;100.00;100102.95;1451006;99;21155;-75
2021/06/04 10:46:25;;;;;;;27.60;9.83;;;;;;;19.58;100.00;100098.44;1438778;100;21146;-78
2021/06/04 10:49:17;;;;;;;26.73;8.63;;;;;;;19.70;100.00;100102.92;1438057;97;21100;-77
2021/06/04 10:52:15;;;;;;;162.57;70.17;;;;;;;19.81;100.00;100099.97;1438511;98;21918;-77
2021/06/04 10:54:54;;;;;;;49.05;21.02;;;;;;;19.98;100.00;100100.19;1438275;100;21604;-76
2021/06/04 10:57:49;;;;;;;39.50;12.00;;;;;;;20.04;100.00;100099.79;1437100;100;21134;-78
2021/06/04 11:00:27;;;;;;;25.72;7.87;;;;;;;20.01;100.00;100103.84;1438175;100;21168;-77
2021/06/04 11:03:20;;;;;;;53.80;24.02;;;;;;;20.02;100.00;100102.76;1438088;99;21479;-77
2021/06/04 11:05:56;;;;;;;35.33;15.75;;;;;;;20.02;100.00;100106.88;1438425;100;21151;-78
2021/06/04 11:09:03;;;;;;;18.92;4.87;;;;;;;19.98;100.00;100109.79;1447287;94;21690;-79
2021/06/04 11:12:11;;;;;;;46.88;9.63;;;;;;;19.96;100.00;100104.25;1447421;99;21117;-78
2021/06/04 11:14:56;;;;;;;209.80;102.00;;;;;;;20.00;100.00;100110.39;1420989;99;21580;-78
2021/06/04 11:17:46;;;;;;;34.03;16.45;;;;;;;20.12;100.00;100111.83;1390282;103;21240;-78
2021/06/04 11:20:37;;;;;;;25.35;7.37;;;;;;;20.07;100.00;100108.94;1452212;97;21132;-77
2021/06/04 11:23:39;;;;;;;26.33;9.85;;;;;;;20.08;100.00;100104.59;1475019;96;21148;-77
2021/06/04 11:26:33;;;;;;;44.18;10.08;;;;;;;20.03;100.00;100100.88;1461995;98;21145;-78
2021/06/04 11:29:14;;;;;;;29.42;12.10;;;;;;;20.05;100.00;100115.20;1461419;97;21249;-78
2021/06/04 11:32:13;;;;;;;165.47;91.47;;;;;;;20.07;100.00;100122.66;1461290;98;21114;-78
2021/06/04 11:35:10;;;;;;;67.53;36.73;;;;;;;19.98;100.00;100122.14;1461574;98;21603;-78
2021/06/04 11:38:04;;;;;;;46.75;22.93;;;;;;;19.82;100.00;100118.66;1477184;96;21659;-78
2021/06/04 11:40:41;;;;;;;57.78;24.32;;;;;;;19.62;100.00;100127.94;1502105;95;21600;-77
2021/06/04 11:43:17;;;;;;;131.65;67.72;;;;;;;19.58;100.00;100129.44;1501983;96;21719;-79
2021/06/04 11:45:47;;;;;;;51.48;16.45;;;;;;;19.58;100.00;100139.04;1499368;96;21737;-79
2021/06/04 11:48:33;;;;;;;36.70;9.45;;;;;;;19.53;100.00;100141.11;1502070;96;21631;-77
2021/06/04 11:51:23;;;;;;;28.15;8.50;;;;;;;19.43;100.00;100148.19;1502006;93;21082;-77
2021/06/04 11:53:53;;;;;;;35.38;13.98;;;;;;;19.28;100.00;100154.02;1509733;93;21205;-77